Cactus Peak, Santa Catalina Island Weather observations

Data are for 10 minute period ending at time listed.
 Day   Time   Solar   Ave.   Ave.  Ave.  Vector    Max.   Stn.    Total
  of    of     Rad.   Air    Rel.  Wind   Wind     Wind   Baro.  Precip.
Year   Day            Temp.  Hum.  Speed  Dir.     Gust   Pres.         
2014   (PST)   W/m2    F      %     mph   deg.      mph    mb.     in.  
------------------------------------------------------------------------
 274    8:30  302.0    64   85.3    12    166.8    17.3    999.0   0.00  
 274    8:40  473.0    64   83.7    11    164.5    19.1    999.0   0.00  
 274    8:50  509.0    65   81.6     7    164.7    11.3    999.0   0.00  
 274    9:00  534.0    66   80.5     7    161.0    11.3    999.0   0.00  
 274    9:10  575.0    68   77.1     4    145.4     7.8    999.0   0.00  
 274    9:20  601.0    70   73.1     5    150.9     8.4    999.0   0.00  
 274    9:30  625.0    70   72.2     6    158.4    10.2    999.0   0.00  
 274    9:40  646.0    71   70.9     4    119.4     8.4    999.0   0.00  
 274    9:50  668.0    73   67.2     3     51.9     5.4    999.0   0.00  
 274   10:00  688.0    74   67.0     5     93.6     7.2    999.0   0.00  
 274   10:10  705.0    73   67.5     6    116.6    11.3    999.0   0.00  
 274   10:20  721.0    72   69.6     6    137.3    10.2    999.0   0.00  
 274   10:30  736.0    72   69.3     7    165.4    10.2    999.0   0.00  
 274   10:40  750.0    71   70.9     8    168.9    11.9    999.0   0.00  
 274   10:50  763.0    72   68.9     6    171.5    10.8    999.0   0.00  
 274   11:00  776.0    72   69.1     6    178.5     8.4    999.0   0.00  
 274   11:10  785.0    74   65.9     5    175.0     9.0    999.0   0.00  
 274   11:20  794.0    73   67.9     7    170.1    11.9    999.0   0.00  
 274   11:30  800.0    73   68.4     6    168.0     9.6    999.0   0.00  
 274   11:40  802.0    73   68.2     7    167.9    10.2    999.0   0.00  
 274   11:50  805.0    75   64.3     5    162.8     8.4    999.0   0.00  
 274   12:00  804.0    74   66.4     7    179.3    11.3    999.0   0.00  
 274   12:10  800.0    73   69.4     8    189.4    11.3    999.0   0.00  
 274   12:20  795.0    72   71.3     7    176.7    10.8    999.0   0.00  
 274   12:30  790.0    72   70.5     9    174.8    12.5    999.0   0.00  
 274   12:40  782.0    72   71.6     9    173.5    13.7    999.0   0.00  
 274   12:50  774.0    72   70.8     8    171.8    13.7    999.0   0.00  
 274   13:00  762.0    73   70.2     9    171.7    13.1    999.0   0.00  
 274   13:10  751.0    74   68.6     7    174.3    10.2    999.0   0.00  
 274   13:20  737.0    76   63.5     7    177.1    10.8    999.0   0.00  
 274   13:30  722.0    77   58.3     4    168.4     9.0    999.0   0.00  
 274   13:40  704.0    77   59.5     5    174.1    11.3    999.0   0.00  
 274   13:50  684.0    78   60.6     4    186.7     7.2    999.0   0.00  
 274   14:00  662.0    78   61.1     3    310.5     6.6    999.0   0.00  
 274   14:10  641.0    78   61.4     4    349.2     9.0    999.0   0.00  
 274   14:20  618.0    78   61.2     5    214.3    10.2    999.0   0.00  
 274   14:30  593.0    77   62.5     6    182.4    10.8    999.0   0.00  
 274   14:40  568.0    78   61.5     4     59.9     6.6    999.0   0.00  
 274   14:50  541.0    77   62.0     5    336.1     6.6    999.0   0.00  
 274   15:00  513.0    76   63.6     4    343.6     6.6    999.0   0.00  
 274   15:10  484.0    78   60.6     3    347.0     5.4    999.0   0.00  
 274   15:20  453.0    77   62.6     3    345.0     5.4    999.0   0.00  
 274   15:30  423.0    78   62.0     4    334.4     7.2    999.0   0.00  
 274   15:40  390.0    76   64.5     4    327.5     6.6    999.0   0.00  
 274   15:50  358.0    77   63.5     3    339.5     6.0    999.0   0.00  
 274   16:00  326.0    75   65.9     5    330.1     6.6    999.0   0.00  
 274   16:10  292.0    74   66.7     4    343.2     6.0    999.0   0.00  
 274   16:20  259.0    74   67.9     4    351.6     5.4    999.0   0.00  
 274   16:30  226.0    74   67.1     3    353.1     4.2    999.0   0.00  
 274   16:40  192.0    76   64.3     2      5.2     3.6    999.0   0.00  
 274   16:50  158.0    76   64.4     4    185.9     5.4    999.0   0.00  
 274   17:00  126.0    74   67.1     2     48.7     4.2    999.0   0.00  
 274   17:10   93.0    72   69.1     2     34.8     3.0    999.0   0.00  
 274   17:20   57.0    72   68.6     2     18.5     3.0    999.0   0.00  
 274   17:30   26.0    75   62.9     1    355.4     1.2    999.0   0.00  
 274   17:40   10.0    75   60.2     1     14.3     3.6    999.0   0.00  
 274   17:50    4.0    72   67.8     2     34.5     3.0    999.0   0.00  
 274   18:00    0.0    73   63.0     2     12.2     3.6    999.0   0.00  
 274   18:10    0.0    72   67.8     3     37.3     4.2    999.0   0.00  
 274   18:20    0.0    72   64.2     2    132.2     3.0    999.0   0.00  
 274   18:30    0.0    74   55.6     2    141.4     3.6    999.0   0.00  
 274   18:40    0.0    75   53.2     2     99.1     4.2    999.0   0.00  
 274   18:50    0.0    73   57.1     2     49.7     3.6    999.0   0.00  
 274   19:00    0.0    73   59.4     2    340.6     3.6    999.0   0.00  
 274   19:10    0.0    72   63.8     4    340.8     6.0    999.0   0.00  
 274   19:20    0.0    72   64.8     5    347.7     5.4    999.0   0.00  
 274   19:30    0.0    72   64.0     5    341.7     6.0    999.0   0.00  
 274   19:40    0.0    71   63.8     6    328.7     7.8    999.0   0.00  
 274   19:50    0.0    71   63.1     6    330.5     7.8    999.0   0.00  
 274   20:00    0.0    71   59.3     5    329.2     6.6    999.0   0.00  
 274   20:10    0.0    72   57.5     5    327.5     6.0    999.0   0.00  
 274   20:20    0.0    72   55.8     4    323.9     5.4    999.0   0.00  
 274   20:30    0.0    72   55.7     6    334.2     6.6    999.0   0.00  
 274   20:40    0.0    71   57.5     5    353.1     6.6    999.0   0.00  
 274   20:50    0.0    72   58.1     5    337.0     6.0    999.0   0.00  
 274   21:00    0.0    72   56.0     4    335.0     5.4    999.0   0.00  
 274   21:10    0.0    72   53.1     3    324.4     3.6    999.0   0.00  
 274   21:20    0.0    73   51.9     2    298.5     2.4    999.0   0.00  
 274   21:30    0.0    73   50.7     2    310.0     3.6    999.0   0.00  
 274   21:40    0.0    73   49.5     2    311.4     3.6    999.0   0.00  
 274   21:50    0.0    73   50.0     3    322.2     4.8    999.0   0.00  
 274   22:00    0.0    73   50.4     2    321.5     4.2    999.0   0.00  
 274   22:10    0.0    73   50.1     4    353.9     4.8    999.0   0.00  
 274   22:20    0.0    73   50.4     4    359.8     4.8    999.0   0.00  
 274   22:30    0.0    73   49.3     4    358.5     6.0    999.0   0.00  
 274   22:40    0.0    73   49.5     5    333.8     6.0    999.0   0.00  
 274   22:50    0.0    73   49.6     5    337.4     6.6    999.0   0.00  
 274   23:00    0.0    73   49.8     6    350.8     6.6    999.0   0.00  
 274   23:10    0.0    73   49.7     6      2.3     6.6    999.0   0.00  
 274   23:20    0.0    74   49.1     6      8.6     6.0    999.0   0.00  
 274   23:30    0.0    74   48.6     6     10.3     6.6    999.0   0.00  
 274   23:40    0.0    74   48.2     5     11.4     6.0    999.0   0.00  
 274   23:50    0.0    74   48.7     7     20.4     7.8    999.0   0.00  
 275    0:00    0.0    72   49.8     7     23.6     8.4    999.0   0.00  
 275    0:10    0.0    72   50.0     8     23.8     9.6    999.0   0.00  
 275    0:20    0.0    72   49.5     7     13.8     9.0    999.0   0.00  
 275    0:30    0.0    73   48.2     7     14.1     7.8    999.0   0.00  
 275    0:40    0.0    74   47.4     7     16.0     8.4    999.0   0.00  
 275    0:50    0.0    74   47.4     8      6.4     9.0    999.0   0.00  
 275    1:00    0.0    74   47.0     6      1.9     7.8    999.0   0.00  
 275    1:10    0.0    75   47.1     6      3.2     7.8    999.0   0.00  
 275    1:20    0.0    74   47.3     7    354.5     7.8    999.0   0.00  
 275    1:30    0.0    74   47.3     7    357.2     7.8    999.0   0.00  
 275    1:40    0.0    74   47.0     7      5.4     8.4    999.0   0.00  
 275    1:50    0.0    75   46.5     8     10.5     9.6    999.0   0.00  
 275    2:00    0.0    75   45.4     6     34.2     8.4    999.0   0.00  
 275    2:10    0.0    76   45.2     7     34.0     9.6    999.0   0.00  
 275    2:20    0.0    76   43.8    10     21.4    11.3    999.0   0.00  
 275    2:30    0.0    75   43.8     9     17.0    10.2    999.0   0.00  
 275    2:40    0.0    75   43.7     9     17.0    10.2    999.0   0.00  
 275    2:50    0.0    75   43.4     9     14.9     9.6    999.0   0.00  
 275    3:00    0.0    76   43.1     9     16.7    10.8    999.0   0.00  
 275    3:10    0.0    75   43.2     8     17.9    10.2    999.0   0.00  
 275    3:20    0.0    75   43.3     8      8.2     9.6    999.0   0.00  
 275    3:30    0.0    76   43.0     7      4.8    10.2    999.0   0.00  
 275    3:40    0.0    75   43.8     7      5.5     9.0    999.0   0.00  
 275    3:50    0.0    75   44.0     7      8.9     9.6    999.0   0.00  
 275    4:00    0.0    75   43.3     7      5.7     9.6    999.0   0.00  
 275    4:10    0.0    75   42.5     5     11.0     7.8    999.0   0.00  
 275    4:20    0.0    75   41.8     4     28.3     5.4    999.0   0.00  
 275    4:30    0.0    75   41.3     7     17.8     9.6    999.0   0.00  
 275    4:40    0.0    75   42.5     7      8.1     9.0    999.0   0.00  
 275    4:50    0.0    75   42.3     9      7.0    11.9    999.0   0.00  
 275    5:00    0.0    75   41.8    10      5.9    11.9    999.0   0.00  
 275    5:10    0.0    75   41.3    10     14.4    11.9    999.0   0.00  
 275    5:20    0.0    75   41.2    10     15.5    13.1    999.0   0.00  
 275    5:30    0.0    75   41.6    12     19.7    14.3    999.0   0.00  
 275    5:40    0.0    75   42.0    12     20.7    14.9    999.0   0.00  
 275    5:50    1.0    75   42.9    10     19.8    12.5    999.0   0.00  
 275    6:00    7.0    75   43.0     9     15.6    11.3    999.0   0.00  
 275    6:10   18.0    76   41.8    12     22.0    16.1    999.0   0.00  
 275    6:20   38.0    78   38.4    12     28.5    16.1    999.0   0.00  
 275    6:30   68.0    79   36.0    11     29.9    15.5    999.0   0.00  
 275    6:40  106.0    80   34.8    11     27.8    15.5    999.0   0.00  
 275    6:50  140.0    80   33.2    10     28.8    14.3    999.0   0.00  
 275    7:00  172.0    81   31.9     9     29.2    13.1    999.0   0.00  
 275    7:10  205.0    81   30.7     9     22.6    12.5    999.0   0.00  
 275    7:20  238.0    82   30.4     8     22.2    11.3    999.0   0.00  
 275    7:30  272.0    82   30.6     7     14.3     9.6    999.0   0.00  
 275    7:40  305.0    83   30.5     6      4.7     8.4    999.0   0.00  
 275    7:50  338.0    84   30.0     6      9.0     9.0    999.0   0.00  
 275    8:00  370.0    84   30.0     7     11.4    10.8    999.0   0.00  
 275    8:10  402.0    84   29.7     7      0.3     9.6    999.0   0.00  
 275    8:20  434.0    85   29.2     7    359.8     9.6    999.0   0.00  

Return to Cactus Peak graphs page.


Western Regional Climate Center,wrcc@dri.edu